• Join FlightAware (Why Join?)
  • Login
  • US Flag 
01:47PM EDT


 

Airport Tracker/Info


-or-


 

Live Flight TrackerFlight Track Log ✈ FLG4135 ✈ 29-Apr-2013 ✈ KDTW - KROC

Flight Track Log - Related Links

Times and Time Zones

All times are in EDT time to prevent confusion due to time zone crossing. See the FLG4135 flight status page for this flight to view local times or setup timezone preferences in your user account.

Time Position Orientation Groundspeed Altitude Reporting Facility
EDT Latitude Longitude Course Direction KTS MPH feet Rate Location/Type
03:26PM 42.2017 -83.3553 185° South 153 176 1,200  Level Cleveland Center
03:27PM 42.1681 -83.3594 185° South 180 207 2,600 1,800 Climbing Cleveland Center
03:28PM 42.1078 -83.3569 178° South 241 277 4,600 2,100 Climbing Cleveland Center
03:29PM 42.0611 -83.3017 139° Southeast 286 329 6,900 2,340 Climbing Cleveland Center
03:30PM 42.0953 -83.1772 70° East 324 373 9,900 1,860 Climbing Cleveland Center
03:31PM 42.1372 -83.0697 62° Northeast 324 373 11,000 1,380 Climbing Cleveland Center
03:32PM 42.1814 -82.9508 63° Northeast 329 379 12,700 1,800 Climbing Cleveland Center
03:33PM 42.2233 -82.8403 63° Northeast 349 402 14,600 1,800 Climbing Cleveland Center
03:34PM 42.2694 -82.7158 63° Northeast 359 413 16,400 1,500 Climbing Cleveland Center
03:35PM 42.3178 -82.5881 63° Northeast 365 420 17,600 1,200 Climbing Cleveland Center
03:36PM 42.3617 -82.4519 66° East 376 433 18,800 1,200 Climbing Cleveland Center
03:37PM 42.3597 -82.3028 91° East 381 438 20,000 1,200 Climbing Cleveland Center
03:38PM 42.3558 -82.1511 92° East 387 445 21,300 1,200 Climbing Cleveland Center
03:39PM 42.3494 -81.9992 93° East 406 467 22,500 840 Climbing Cleveland Center
03:40PM 42.3408 -81.8417 94° East 411 473 23,000 240 Climbing Cleveland Center
03:41PM 42.3322 -81.6644 94° East 417 480 23,000  Level Cleveland Center
03:42PM 42.3272 -81.5017 92° East 429 494 23,000  Level Cleveland Center
03:43PM 42.3181 -81.3414 94° East 429 494 23,000  Level Cleveland Center
03:44PM 42.3086 -81.1811 95° East 429 494 23,000  Level Cleveland Center
03:45PM 42.3031 -81.0183 93° East 423 487 23,000  Level Cleveland Center
03:46PM 42.3078 -80.8583 88° East 423 487 23,000  Level Cleveland Center
03:47PM 42.3497 -80.7153 68° East 408 470 23,000  Level Cleveland Center
03:48PM 42.3872 -80.5803 69° East 415 478 23,000  Level Cleveland Center
03:49PM 42.4308 -80.4314 68° East 420 483 23,000  Level Cleveland Center
03:50PM 42.4744 -80.2847 68° East 420 483 23,000  Level Cleveland Center
03:51PM 42.5156 -80.1353 69° East 420 483 23,000  Level Cleveland Center
03:52PM 42.5628 -79.9714 69° East 420 483 23,000  Level Cleveland Center
03:53PM 42.6078 -79.8272 67° East 415 478 23,000 -6,000 Level Cleveland Center
03:54PM 42.6483 -79.6772 70° East 415 478 11,000 -180 Descending Cleveland Center
03:56PM 42.7311 -79.3764 69° East 415 478 22,500 3,240 Climbing Cleveland Center
03:57PM 42.7753 -79.2311 67° East 415 478 20,800 -1,980 Descending Cleveland Center
03:58PM 42.8131 -79.0861 70° East 410 472 18,600 -2,220 Descending Cleveland Center
03:59PM 42.8489 -78.9492 70° East 404 465 16,400 -2,220 Descending Cleveland Center
04:00PM 42.8844 -78.8153 70° East 396 456 14,200 -2,100 Descending Cleveland Center
04:01PM 42.9178 -78.6922 70° East 388 447 12,200 -2,040 Descending Cleveland Center
04:02PM 42.9450 -78.5722 73° East 345 397 10,400 -1,740 Descending Cleveland Center
04:03PM 42.9717 -78.4381 75° East 317 365 8,800 -1,500 Descending Cleveland Center
04:04PM 42.9867 -78.3467 77° East 290 334 7,300 -900 Descending Cleveland Center
04:06PM 43.0325 -78.2342 61° Northeast 296 341 7,000 -240 Descending Cleveland Center
04:06PM 43.0642 -78.1536 62° Northeast 279 321 6,900 -360 Descending Cleveland Center
04:07PM 43.1017 -78.0553 62° Northeast 284 327 6,400 -1,200 Descending Cleveland Center
04:08PM 43.1392 -77.9628 61° Northeast 284 327 4,600 -1,800 Descending Cleveland Center
04:10PM 43.1867 -77.8553 59° Northeast 263 303 2,600 -1,020 Descending Cleveland Center
04:11PM 43.2033 -77.7692 75° East 210 242 2,500 -60 Descending Cleveland Center
04:12PM 43.2017 -77.6953 92° East 175 201 2,500 -300 Level Cleveland Center
04:13PM 43.1753 -77.6481 127° Southeast 136 157 1,900 -720 Descending Cleveland Center
04:14PM 43.1444 -77.6608 197° South 128 147 1,100 -840 Descending Cleveland Center
04:16PM 43.1167 -77.6667 172° South  Level FlightAware Approximate